KRAC/RAC METAR and TAF weather

Enter ICAO airport designator
Station Type Date Time Source
KRAC METAR 2020/10/20 17:53 UTC NOAA

KRAC 201753Z AUTO 13008KT 10SM OVC018 08/04 A3025 RMK AO2 SLP248 T00830039 10083 20039 58017


Station Type Date Time Source
KRAC Decoded METAR 2020/10/20 17:53 UTC NOAA

BATTEN INTERNATIONAL AIRPORT, WI, United States (KRAC) 42-46N 87-49W 203M
Oct 20, 2020 - 01:53 PM EDT / 2020.10.20 1753 UTC
Wind: from the SE (130 degrees) at 9 MPH (8 KT):0
Visibility: 10 mile(s):0
Sky conditions: overcast
Temperature: 46.9 F (8.3 C)
Dew Point: 39.0 F (3.9 C)
Relative Humidity: 73%
Pressure (altimeter): 30.25 in. Hg (1024 hPa)
Pressure tendency: 0.05 inches (1.7 hPa) lower than three hours ago
ob: KRAC 201753Z AUTO 13008KT 10SM OVC018 08/04 A3025 RMK AO2 SLP248 T00830039 10083 20039 58017
cycle: 18

Station Type Date Time Source
KRAC TAF UTC NOAA

Error!

Example: see airport list